Time;durP1;ratioP1;P1;durP2;ratioP2;P2;SDS_P1;SDS_P2;PMS_P1;PMS_P2;Temp;Humidity;BMP_temperature;BMP_pressure;BME280_temperature;BME280_humidity;BME280_pressure;Samples;Min_cycle;Max_cycle;Signal;HPM_P1;HPM_P2
2021/09/20 00:00:06;;;;;;;4.53;3.30;;;;;;;34.48;22.50;94235.69;4999394;28;20042;-46
2021/09/20 00:02:33;;;;;;;3.88;3.10;;;;;;;34.53;22.86;94235.09;5014024;28;20045;-50
2021/09/20 00:05:00;;;;;;;7.78;4.20;;;;;;;34.43;22.79;94231.59;4995732;28;20057;-46
2021/09/20 00:07:27;;;;;;;5.93;3.50;;;;;;;34.37;22.55;94235.31;5008982;28;20376;-46
2021/09/20 00:09:54;;;;;;;4.78;3.33;;;;;;;34.54;22.50;94228.47;5005736;28;20056;-49
2021/09/20 00:12:21;;;;;;;7.82;3.38;;;;;;;34.39;22.49;94232.91;5004589;28;20468;-47
2021/09/20 00:14:48;;;;;;;3.58;3.10;;;;;;;34.58;22.30;94227.13;4993829;28;20057;-46
2021/09/20 00:17:16;;;;;;;8.60;3.58;;;;;;;34.40;22.52;94231.72;4993487;28;20049;-52
2021/09/20 00:19:43;;;;;;;6.15;3.15;;;;;;;34.44;22.36;94227.69;4985691;28;20045;-47
2021/09/20 00:22:10;;;;;;;6.15;3.50;;;;;;;34.48;22.15;94216.69;5013812;28;20045;-47
2021/09/20 00:24:37;;;;;;;5.43;3.17;;;;;;;34.46;22.13;94219.09;5005448;28;20050;-47
2021/09/20 00:27:12;;;;;;;4.53;2.92;;;;;;;34.57;21.99;94219.44;4993548;28;20050;-50
2021/09/20 00:29:39;;;;;;;5.30;3.50;;;;;;;34.36;22.42;94215.56;5002064;28;20050;-46
2021/09/20 00:32:06;;;;;;;7.18;3.40;;;;;;;34.43;22.38;94209.13;5030246;28;20045;-51
2021/09/20 00:34:33;;;;;;;5.55;3.20;;;;;;;34.39;22.50;94213.94;4977388;28;20362;-48
2021/09/20 00:37:00;;;;;;;4.47;3.38;;;;;;;34.29;22.46;94205.69;4999437;28;20050;-48
2021/09/20 00:39:27;;;;;;;4.32;3.30;;;;;;;34.53;21.99;94202.53;5009476;28;20057;-47
2021/09/20 00:41:55;;;;;;;4.30;3.53;;;;;;;34.40;22.61;94199.16;4998327;28;20050;-48
2021/09/20 00:44:22;;;;;;;5.43;3.55;;;;;;;34.50;22.29;94200.72;5003940;28;20050;-48
2021/09/20 00:46:49;;;;;;;4.20;3.42;;;;;;;34.54;22.24;94198.63;4994252;28;20051;-47
2021/09/20 00:49:17;;;;;;;5.50;3.03;;;;;;;34.39;22.41;94198.41;4997936;28;20636;-52
2021/09/20 00:51:44;;;;;;;4.40;3.40;;;;;;;34.35;22.31;94194.28;5014437;28;20054;-49
2021/09/20 00:54:11;;;;;;;5.00;3.13;;;;;;;34.35;22.33;94188.88;5011889;28;20049;-47
2021/09/20 00:56:38;;;;;;;4.32;3.00;;;;;;;34.35;22.50;94188.88;4999714;28;20081;-46
2021/09/20 00:59:06;;;;;;;4.78;3.10;;;;;;;34.48;21.92;94189.56;4981323;28;20053;-48
2021/09/20 01:01:33;;;;;;;4.10;3.10;;;;;;;34.52;22.20;94198.31;4991830;28;20054;-47
2021/09/20 01:04:00;;;;;;;3.70;2.88;;;;;;;34.36;22.07;94190.41;5000896;28;20052;-47
2021/09/20 01:06:27;;;;;;;5.90;3.40;;;;;;;34.03;22.82;94193.44;5003330;28;20050;-49
2021/09/20 01:08:54;;;;;;;5.45;3.00;;;;;;;34.29;22.01;94205.69;5013104;28;20046;-47
2021/09/20 01:11:22;;;;;;;5.53;2.90;;;;;;;34.21;22.36;94201.72;4994077;28;20054;-45
2021/09/20 01:13:49;;;;;;;6.05;3.25;;;;;;;34.26;22.39;94206.56;4996096;28;20366;-47
2021/09/20 01:16:16;;;;;;;6.57;2.95;;;;;;;34.13;22.48;94197.00;4996555;28;20053;-46
2021/09/20 01:18:44;;;;;;;5.20;2.95;;;;;;;33.97;22.55;94206.81;4994108;28;20058;-47
2021/09/20 01:21:13;;;;;;;5.40;3.20;;;;;;;34.15;22.33;94200.78;4997032;28;20437;-47
2021/09/20 01:23:42;;;;;;;6.57;2.67;;;;;;;34.08;22.52;94194.84;4996348;28;20061;-48
2021/09/20 01:26:11;;;;;;;5.03;2.83;;;;;;;34.01;22.40;94195.84;4981640;28;20046;-45
2021/09/20 01:28:39;;;;;;;6.38;2.97;;;;;;;33.98;22.28;94185.88;4998215;28;20068;-47
2021/09/20 01:31:06;;;;;;;4.88;2.80;;;;;;;34.09;22.30;94199.81;5001521;28;20053;-46
2021/09/20 01:33:33;;;;;;;7.70;2.75;;;;;;;33.95;22.30;94192.94;4997143;28;20053;-46
2021/09/20 01:36:00;;;;;;;5.28;3.30;;;;;;;34.04;22.46;94194.97;5005985;28;20076;-46
2021/09/20 01:38:27;;;;;;;3.65;3.15;;;;;;;34.07;22.32;94198.75;5010199;28;20057;-49
2021/09/20 01:40:54;;;;;;;4.13;2.85;;;;;;;33.99;22.35;94206.38;5001358;28;20118;-55
2021/09/20 01:43:21;;;;;;;6.18;2.80;;;;;;;34.14;22.05;94196.56;4997815;28;20046;-50
2021/09/20 01:45:49;;;;;;;7.28;3.00;;;;;;;34.07;22.24;94194.06;5003474;28;20465;-46
2021/09/20 01:48:17;;;;;;;5.88;3.40;;;;;;;33.97;22.09;94200.63;4997053;28;20438;-47
2021/09/20 01:50:46;;;;;;;3.42;2.90;;;;;;;34.10;22.26;94209.50;5012317;28;20069;-46
2021/09/20 01:53:14;;;;;;;4.20;2.95;;;;;;;34.12;21.98;94201.66;5014518;28;20046;-49
2021/09/20 01:55:41;;;;;;;4.78;3.50;;;;;;;34.18;22.07;94210.75;4995771;28;20476;-47
2021/09/20 01:58:09;;;;;;;5.55;3.05;;;;;;;34.11;22.24;94210.25;5009689;28;20061;-46
2021/09/20 02:00:36;;;;;;;9.13;3.42;;;;;;;33.95;22.22;94200.31;4993508;28;20365;-48
2021/09/20 02:03:03;;;;;;;7.18;3.35;;;;;;;33.88;22.13;94201.34;5007957;28;20050;-47
2021/09/20 02:05:30;;;;;;;5.57;3.10;;;;;;;33.94;22.32;94201.53;5000306;28;20057;-48
2021/09/20 02:07:57;;;;;;;4.90;3.10;;;;;;;33.87;22.67;94196.34;5008195;28;20045;-47
2021/09/20 02:10:24;;;;;;;4.00;2.90;;;;;;;34.08;21.98;94192.88;5016374;28;20459;-46
2021/09/20 02:12:51;;;;;;;6.50;3.45;;;;;;;33.95;22.11;94197.63;4996948;28;20047;-50
2021/09/20 02:15:18;;;;;;;5.80;3.30;;;;;;;34.07;22.24;94182.47;5001087;28;20457;-47
2021/09/20 02:17:45;;;;;;;4.57;3.20;;;;;;;34.09;21.82;94175.41;4997585;28;20046;-46
2021/09/20 02:20:12;;;;;;;9.93;3.63;;;;;;;34.05;22.18;94174.78;5006487;28;20050;-47
2021/09/20 02:22:40;;;;;;;6.35;3.60;;;;;;;34.22;22.10;94167.97;5016397;28;20061;-47
2021/09/20 02:25:08;;;;;;;5.90;3.17;;;;;;;34.07;22.14;94158.81;5009885;28;20475;-48
2021/09/20 02:27:36;;;;;;;4.80;3.13;;;;;;;34.05;22.50;94153.09;5013592;28;20045;-48
2021/09/20 02:30:05;;;;;;;4.47;3.35;;;;;;;34.03;22.43;94145.41;5004419;28;20060;-47
2021/09/20 02:32:34;;;;;;;5.80;3.33;;;;;;;33.98;22.21;94142.50;5014802;28;20057;-46
2021/09/20 02:35:01;;;;;;;5.00;3.65;;;;;;;33.50;22.59;94132.94;4987985;28;20073;-48
2021/09/20 02:37:29;;;;;;;8.70;3.30;;;;;;;33.90;22.38;94122.28;5003916;28;20061;-50
2021/09/20 02:39:56;;;;;;;6.10;3.45;;;;;;;33.69;22.47;94127.22;5016562;28;20053;-46
2021/09/20 02:42:24;;;;;;;7.35;3.33;;;;;;;33.92;21.87;94134.19;5016358;28;20053;-49
2021/09/20 02:44:51;;;;;;;7.57;3.47;;;;;;;33.98;22.04;94142.50;5020444;28;20072;-48
2021/09/20 02:47:18;;;;;;;4.80;3.15;;;;;;;34.03;21.97;94152.78;5016040;28;20042;-46
2021/09/20 02:49:45;;;;;;;7.55;3.30;;;;;;;33.89;21.92;94145.16;5013682;28;20045;-48
2021/09/20 02:52:12;;;;;;;5.15;3.30;;;;;;;34.04;22.00;94146.16;4996743;28;20053;-49
2021/09/20 02:54:39;;;;;;;5.07;3.60;;;;;;;33.85;22.35;94149.97;5013627;28;20057;-48
2021/09/20 02:57:06;;;;;;;8.90;3.72;;;;;;;33.96;22.25;94142.19;4995906;28;20058;-48
2021/09/20 02:59:33;;;;;;;9.65;3.65;;;;;;;33.99;22.03;94154.88;5005307;28;20053;-46
2021/09/20 03:02:00;;;;;;;4.20;3.60;;;;;;;33.67;22.60;94155.97;5016271;28;20775;-45
2021/09/20 03:04:27;;;;;;;5.50;3.60;;;;;;;33.95;22.09;94157.69;5003420;28;20046;-46
2021/09/20 03:06:54;;;;;;;9.15;3.58;;;;;;;33.78;22.17;94161.75;5007356;28;20060;-49
2021/09/20 03:09:22;;;;;;;8.13;3.53;;;;;;;33.66;22.03;94155.19;5015083;28;20084;-46
2021/09/20 03:11:49;;;;;;;5.78;3.58;;;;;;;33.95;21.96;94154.25;5012696;28;20046;-47
2021/09/20 03:14:16;;;;;;;9.00;3.88;;;;;;;33.93;21.70;94162.06;4999401;28;20547;-46
2021/09/20 03:16:43;;;;;;;7.97;3.63;;;;;;;33.83;22.01;94160.44;5001272;28;20050;-47
2021/09/20 03:19:10;;;;;;;7.88;3.88;;;;;;;33.71;22.09;94170.13;4995186;28;20057;-46
2021/09/20 03:21:37;;;;;;;4.60;3.42;;;;;;;33.76;22.13;94168.81;4995350;28;20042;-48
2021/09/20 03:24:04;;;;;;;5.93;3.72;;;;;;;33.76;21.77;94166.09;5005624;28;20080;-46
2021/09/20 03:26:31;;;;;;;8.02;3.67;;;;;;;33.76;22.03;94169.56;4995873;28;20061;-45
2021/09/20 03:28:58;;;;;;;9.00;3.90;;;;;;;33.88;21.85;94176.19;4995217;28;20050;-45
2021/09/20 03:31:25;;;;;;;9.77;3.90;;;;;;;34.04;21.75;94159.72;4995272;28;20046;-48
2021/09/20 03:33:52;;;;;;;7.63;3.92;;;;;;;34.04;21.73;94162.44;5003934;28;20049;-46
2021/09/20 03:36:20;;;;;;;7.97;3.85;;;;;;;33.98;22.32;94164.19;5014268;28;20807;-47
2021/09/20 03:38:47;;;;;;;7.93;4.13;;;;;;;33.89;22.16;94161.44;5009348;28;20068;-50
2021/09/20 03:41:14;;;;;;;9.40;4.18;;;;;;;33.36;22.83;94169.38;4997343;28;20046;-48
2021/09/20 03:43:41;;;;;;;11.85;4.47;;;;;;;33.13;23.17;94167.03;5003223;28;20072;-46
2021/09/20 03:46:08;;;;;;;6.95;4.13;;;;;;;32.97;23.64;94170.59;4998764;28;20046;-48
2021/09/20 03:48:35;;;;;;;7.03;4.10;;;;;;;32.63;23.89;94169.28;4994709;28;20049;-46
2021/09/20 03:51:03;;;;;;;6.00;4.57;;;;;;;32.75;23.81;94148.81;4995207;28;20365;-48
2021/09/20 03:53:30;;;;;;;8.70;4.97;;;;;;;31.27;26.55;94144.38;4998539;28;20126;-47
2021/09/20 03:55:57;;;;;;;7.40;4.95;;;;;;;33.14;24.12;94144.16;5023072;28;20164;-48
2021/09/20 03:58:24;;;;;;;8.80;4.95;;;;;;;34.24;22.72;94137.69;5020859;28;20386;-52
2021/09/20 04:00:51;;;;;;;10.38;4.18;;;;;;;35.16;21.90;94141.59;4998622;28;20053;-46
2021/09/20 04:03:18;;;;;;;5.95;3.97;;;;;;;35.35;21.64;94150.53;4998688;28;20046;-45
2021/09/20 04:05:46;;;;;;;8.10;5.30;;;;;;;35.87;21.38;94157.69;5007857;28;20385;-47
2021/09/20 04:08:15;;;;;;;8.85;5.03;;;;;;;36.96;20.16;94172.31;5006992;28;20042;-50
2021/09/20 04:10:43;;;;;;;7.50;4.80;;;;;;;36.22;20.24;94181.84;4995517;28;20054;-45
2021/09/20 04:13:11;;;;;;;9.85;6.70;;;;;;;35.02;22.12;94177.44;4996878;28;20057;-46
2021/09/20 04:15:38;;;;;;;12.10;6.80;;;;;;;33.98;23.39;94172.34;5015325;28;20048;-46
2021/09/20 04:18:06;;;;;;;7.43;6.72;;;;;;;33.86;23.48;94167.72;4995539;28;20050;-46
2021/09/20 04:20:34;;;;;;;7.70;6.60;;;;;;;33.97;23.29;94159.97;4994310;28;20065;-56
2021/09/20 04:23:01;;;;;;;7.95;6.90;;;;;;;34.06;23.33;94164.69;4994587;28;20389;-56
2021/09/20 04:25:28;;;;;;;7.13;5.75;;;;;;;34.33;22.95;94173.75;5022832;28;20060;-45
2021/09/20 04:27:55;;;;;;;7.28;6.50;;;;;;;34.22;23.09;94181.53;5016009;28;20475;-56
2021/09/20 04:30:22;;;;;;;10.45;6.43;;;;;;;34.58;22.51;94185.69;5034417;28;20053;-49
2021/09/20 04:32:50;;;;;;;8.90;6.45;;;;;;;34.48;22.84;94167.84;5017546;28;20056;-48
2021/09/20 04:35:17;;;;;;;8.95;6.90;;;;;;;33.87;23.62;94174.66;5008854;28;20045;-50
2021/09/20 04:37:44;;;;;;;9.35;7.00;;;;;;;33.91;23.54;94180.72;5007690;28;20047;-50
2021/09/20 04:40:12;;;;;;;9.27;6.60;;;;;;;33.77;23.64;94170.31;4995168;28;20066;-56
2021/09/20 04:42:39;;;;;;;10.52;6.78;;;;;;;33.77;24.10;94170.31;5009911;28;20045;-46
2021/09/20 04:45:07;;;;;;;8.88;6.90;;;;;;;33.50;24.29;94165.44;4987542;28;20050;-49
2021/09/20 04:47:34;;;;;;;7.95;6.80;;;;;;;33.41;24.52;94161.47;5013416;28;20073;-56
2021/09/20 04:50:02;;;;;;;10.52;7.05;;;;;;;33.41;24.39;94155.28;5009240;28;20054;-46
2021/09/20 04:52:29;;;;;;;10.30;7.47;;;;;;;34.09;23.76;94161.09;4994390;28;20456;-45
2021/09/20 04:54:56;;;;;;;10.75;7.70;;;;;;;33.79;24.26;94171.41;5001791;28;20052;-51
2021/09/20 04:57:23;;;;;;;14.93;8.73;;;;;;;33.86;24.13;94178.59;5034738;28;20049;-47
2021/09/20 04:59:51;;;;;;;12.73;9.40;;;;;;;33.79;23.82;94173.34;5038510;28;20056;-47
2021/09/20 05:02:18;;;;;;;14.07;10.68;;;;;;;33.40;24.29;94187.03;5038351;28;20052;-44
2021/09/20 05:04:45;;;;;;;11.15;9.95;;;;;;;33.28;25.10;94206.72;5038021;28;20045;-45
2021/09/20 05:07:12;;;;;;;11.45;9.35;;;;;;;33.61;24.46;94201.06;5021112;28;20368;-43
2021/09/20 05:09:39;;;;;;;14.82;11.00;;;;;;;32.74;25.70;94199.47;4997819;28;20054;-43
2021/09/20 05:12:06;;;;;;;14.98;11.50;;;;;;;32.30;25.85;94200.41;4998097;28;20050;-44
2021/09/20 05:14:33;;;;;;;13.13;11.80;;;;;;;32.59;25.95;94200.34;4998814;28;20113;-44
2021/09/20 05:17:03;;;;;;;13.43;12.13;;;;;;;32.27;26.07;94207.44;5018040;28;20045;-43
2021/09/20 05:19:30;;;;;;;13.13;11.23;;;;;;;32.08;26.43;94216.41;5007220;28;20496;-43
2021/09/20 05:21:58;;;;;;;12.02;10.90;;;;;;;32.04;26.31;94204.94;4998717;28;20342;-43
2021/09/20 05:24:25;;;;;;;12.85;11.63;;;;;;;32.13;26.75;94203.13;4998456;28;20046;-43
2021/09/20 05:26:52;;;;;;;10.63;9.73;;;;;;;32.30;26.05;94205.81;5033715;28;20045;-44
2021/09/20 05:29:19;;;;;;;9.95;8.93;;;;;;;32.15;26.20;94200.00;5037406;28;20045;-44
2021/09/20 05:31:46;;;;;;;10.20;8.25;;;;;;;32.50;26.12;94223.34;5037898;28;20045;-43
2021/09/20 05:34:13;;;;;;;8.13;7.32;;;;;;;33.32;25.25;94212.09;5037810;28;20053;-45
2021/09/20 05:36:40;;;;;;;10.98;7.85;;;;;;;33.55;24.63;94198.16;5010391;28;20069;-43
2021/09/20 05:39:08;;;;;;;9.95;8.43;;;;;;;33.31;25.19;94199.69;4998192;28;20051;-45
2021/09/20 05:41:35;;;;;;;9.55;8.50;;;;;;;33.42;24.82;94190.06;4997660;28;20501;-50
2021/09/20 05:44:02;;;;;;;8.15;7.45;;;;;;;33.33;25.08;94192.69;4998536;28;20042;-45
2021/09/20 05:46:29;;;;;;;7.72;7.05;;;;;;;33.52;24.49;94201.72;5027017;28;20037;-46
2021/09/20 05:48:56;;;;;;;9.70;8.70;;;;;;;33.62;24.55;94203.34;5036623;28;20049;-50
2021/09/20 05:51:23;;;;;;;9.50;8.70;;;;;;;33.49;24.82;94210.75;5037552;28;20329;-48
2021/09/20 05:53:50;;;;;;;9.52;8.63;;;;;;;33.59;24.29;94204.22;5037590;28;20057;-61
2021/09/20 05:56:17;;;;;;;9.43;8.52;;;;;;;33.57;24.34;94206.63;5024583;28;20049;-44
2021/09/20 05:58:44;;;;;;;9.10;8.30;;;;;;;33.57;24.21;94201.19;5017316;28;20046;-43
2021/09/20 06:01:12;;;;;;;9.13;8.32;;;;;;;33.65;24.49;94205.19;5016890;28;20050;-44
2021/09/20 06:03:39;;;;;;;9.32;8.43;;;;;;;33.49;24.50;94199.91;5017712;28;20053;-43
2021/09/20 06:06:06;;;;;;;10.02;9.07;;;;;;;33.50;24.37;94201.41;5022205;28;20049;-43
2021/09/20 06:08:33;;;;;;;9.93;9.02;;;;;;;33.55;24.27;94195.44;5016477;28;20049;-44
2021/09/20 06:11:00;;;;;;;9.52;8.63;;;;;;;33.76;24.01;94191.25;5017252;28;20046;-43
2021/09/20 06:13:27;;;;;;;10.13;9.23;;;;;;;33.61;24.28;94201.06;5016427;28;20046;-48
2021/09/20 06:15:54;;;;;;;10.52;9.52;;;;;;;33.52;24.34;94187.44;5025724;28;20041;-42
2021/09/20 06:18:21;;;;;;;10.20;9.30;;;;;;;33.60;24.18;94200.31;5036603;28;20060;-47
2021/09/20 06:20:48;;;;;;;11.23;9.90;;;;;;;33.84;23.99;94197.25;5036247;28;20045;-44
2021/09/20 06:23:15;;;;;;;10.95;9.13;;;;;;;33.58;24.26;94200.00;5036940;28;20364;-48
2021/09/20 06:25:42;;;;;;;10.10;9.20;;;;;;;33.79;24.46;94195.03;5029716;28;20046;-45
2021/09/20 06:28:09;;;;;;;10.40;9.30;;;;;;;33.63;24.21;94199.44;5016705;28;20048;-45
2021/09/20 06:30:37;;;;;;;11.88;9.60;;;;;;;33.44;24.98;94208.59;5017080;28;20090;-43
2021/09/20 06:33:04;;;;;;;10.65;9.65;;;;;;;33.76;24.57;94207.53;5016100;28;20049;-50
2021/09/20 06:35:31;;;;;;;10.63;9.63;;;;;;;33.77;24.63;94213.69;5020421;28;20367;-44
2021/09/20 06:37:58;;;;;;;10.85;9.75;;;;;;;33.51;24.62;94219.19;5011658;28;20046;-50
2021/09/20 06:40:26;;;;;;;11.65;10.00;;;;;;;33.81;24.56;94220.50;4996956;28;20123;-44
2021/09/20 06:42:53;;;;;;;11.85;10.63;;;;;;;34.02;23.83;94225.22;4997683;28;20369;-49
2021/09/20 06:45:20;;;;;;;11.32;10.07;;;;;;;33.71;24.43;94216.97;5002628;28;20055;-47
2021/09/20 06:47:47;;;;;;;11.60;10.05;;;;;;;33.47;24.55;94218.53;5035754;28;20468;-45
2021/09/20 06:50:15;;;;;;;14.13;10.38;;;;;;;33.74;24.73;94226.19;5036050;28;20053;-44
2021/09/20 06:52:42;;;;;;;11.57;10.43;;;;;;;33.86;24.55;94221.94;5036500;28;20045;-48
2021/09/20 06:55:11;;;;;;;11.73;10.63;;;;;;;33.69;24.74;94224.78;5034092;28;20053;-46
2021/09/20 06:57:38;;;;;;;14.18;11.23;;;;;;;33.82;24.28;94210.41;5016235;28;20041;-49
2021/09/20 07:00:07;;;;;;;12.85;10.38;;;;;;;33.90;24.14;94200.91;5016061;28;20052;-57
2021/09/20 07:02:34;;;;;;;13.07;10.85;;;;;;;33.89;24.58;94210.97;5016078;28;20053;-43
2021/09/20 07:05:01;;;;;;;14.10;11.40;;;;;;;34.03;24.59;94204.31;5015762;28;20057;-52
2021/09/20 07:07:29;;;;;;;13.70;11.25;;;;;;;34.18;24.60;94205.31;5000821;28;20053;-47
2021/09/20 07:09:56;;;;;;;15.63;11.15;;;;;;;34.01;24.36;94202.03;5016577;28;20057;-47
2021/09/20 07:12:23;;;;;;;12.90;11.23;;;;;;;34.19;24.10;94206.06;5016297;28;20050;-59
2021/09/20 07:14:51;;;;;;;12.73;11.38;;;;;;;34.43;23.97;94212.59;5016015;28;20364;-46
2021/09/20 07:17:18;;;;;;;13.00;11.55;;;;;;;34.69;23.87;94205.06;5034070;28;20445;-52
2021/09/20 07:19:45;;;;;;;14.43;12.45;;;;;;;35.32;23.34;94205.75;5013914;28;20053;-46
2021/09/20 07:22:12;;;;;;;16.23;11.85;;;;;;;35.10;23.44;94208.53;4995639;28;20464;-47
2021/09/20 07:24:39;;;;;;;13.60;11.90;;;;;;;35.19;23.31;94197.72;4996367;28;20050;-45
2021/09/20 07:27:06;;;;;;;13.43;12.02;;;;;;;34.75;23.81;94197.06;5029224;28;20076;-44
2021/09/20 07:29:33;;;;;;;15.00;11.75;;;;;;;34.45;24.02;94201.31;5035768;28;20460;-49
2021/09/20 07:32:00;;;;;;;16.15;13.88;;;;;;;34.49;24.34;94204.63;5035774;28;20376;-43
2021/09/20 07:34:27;;;;;;;16.15;14.55;;;;;;;34.53;24.26;94202.53;5034792;28;20475;-47
2021/09/20 07:36:54;;;;;;;14.95;13.45;;;;;;;34.95;23.74;94194.78;5008877;28;20376;-45
2021/09/20 07:39:21;;;;;;;20.05;14.10;;;;;;;35.98;22.71;94201.50;5012249;28;20468;-46
2021/09/20 07:41:49;;;;;;;14.35;12.95;;;;;;;36.82;22.13;94203.66;5015503;28;20065;-46
2021/09/20 07:44:16;;;;;;;14.13;12.70;;;;;;;37.03;21.69;94205.41;5000377;28;20046;-50
2021/09/20 07:46:43;;;;;;;15.23;11.98;;;;;;;36.40;22.34;94204.34;5021019;28;20427;-51
2021/09/20 07:49:10;;;;;;;14.43;12.80;;;;;;;36.83;22.03;94190.81;5035149;28;20049;-44
2021/09/20 07:51:37;;;;;;;14.55;11.85;;;;;;;36.86;22.03;94184.44;5035366;28;20436;-48
2021/09/20 07:54:04;;;;;;;14.18;12.68;;;;;;;37.17;21.42;94179.44;5035161;28;20364;-46
2021/09/20 07:56:32;;;;;;;13.93;12.18;;;;;;;36.67;21.80;94173.56;5023914;28;20061;-44
2021/09/20 07:59:00;;;;;;;17.48;12.60;;;;;;;36.37;22.29;94166.41;5015170;28;20046;-54
2021/09/20 08:01:28;;;;;;;14.63;12.38;;;;;;;36.21;22.33;94170.19;5015480;28;20049;-46
2021/09/20 08:03:55;;;;;;;14.73;12.90;;;;;;;36.02;22.64;94164.03;5015320;28;20046;-45
2021/09/20 08:06:24;;;;;;;16.08;13.23;;;;;;;35.73;22.90;94158.28;5016663;28;20049;-44
2021/09/20 08:08:52;;;;;;;13.38;11.98;;;;;;;36.38;22.41;94157.03;5014886;28;20447;-44
2021/09/20 08:11:19;;;;;;;14.63;13.02;;;;;;;36.61;22.25;94175.41;5015210;28;20049;-45
2021/09/20 08:13:46;;;;;;;16.80;13.48;;;;;;;36.43;22.95;94180.91;5014448;28;20380;-45
2021/09/20 08:16:13;;;;;;;15.35;13.23;;;;;;;36.30;22.93;94199.34;5010332;28;20053;-45
2021/09/20 08:18:40;;;;;;;17.20;13.40;;;;;;;36.26;22.82;94194.06;5034662;28;20046;-45
2021/09/20 08:21:07;;;;;;;18.90;14.05;;;;;;;36.39;22.41;94175.63;5034809;28;20052;-46
2021/09/20 08:23:35;;;;;;;17.15;14.60;;;;;;;36.17;22.62;94175.03;5034817;28;20049;-49
2021/09/20 08:26:05;;;;;;;17.33;15.25;;;;;;;36.04;22.81;94180.63;5034374;28;20056;-44
2021/09/20 08:28:33;;;;;;;16.90;15.15;;;;;;;36.15;22.40;94172.75;5034505;28;20049;-45
2021/09/20 08:31:00;;;;;;;17.20;15.10;;;;;;;36.13;22.65;94174.44;5034743;28;20049;-45
2021/09/20 08:33:29;;;;;;;20.73;15.30;;;;;;;36.10;22.53;94170.66;5033976;28;20045;-45
2021/09/20 08:35:57;;;;;;;17.38;15.57;;;;;;;35.96;22.55;94176.72;5030278;28;20452;-45
2021/09/20 08:38:24;;;;;;;22.90;15.63;;;;;;;35.85;22.97;94162.81;5014300;28;20469;-46
2021/09/20 08:40:52;;;;;;;23.10;16.17;;;;;;;36.03;22.79;94170.22;5015146;28;20081;-44
2021/09/20 08:43:20;;;;;;;18.70;15.65;;;;;;;36.10;22.76;94165.22;5014790;28;20053;-45
2021/09/20 08:45:48;;;;;;;21.40;14.98;;;;;;;36.48;22.42;94155.81;5017695;28;20080;-45
2021/09/20 08:48:15;;;;;;;16.95;14.73;;;;;;;36.89;21.96;94145.38;5028710;28;20042;-44
2021/09/20 08:50:42;;;;;;;17.00;14.90;;;;;;;36.75;21.73;94146.78;5022806;28;20057;-45
2021/09/20 08:53:10;;;;;;;18.85;14.13;;;;;;;37.33;21.31;94146.38;5014656;28;20045;-44
2021/09/20 08:55:37;;;;;;;17.30;13.43;;;;;;;37.23;21.11;94142.19;5015467;28;20041;-45
2021/09/20 08:58:04;;;;;;;17.30;13.27;;;;;;;37.68;21.05;94132.19;5032716;28;20049;-44
2021/09/20 09:00:31;;;;;;;16.63;12.25;;;;;;;37.82;20.63;94134.22;5021235;28;20058;-46
2021/09/20 09:03:02;;;;;;;17.88;10.93;;;;;;;37.99;20.60;94117.38;4995082;28;20385;-46
2021/09/20 09:05:31;;;;;;;13.27;9.82;;;;;;;38.12;20.75;94115.91;4997783;28;20050;-48
2021/09/20 09:08:00;;;;;;;12.48;10.13;;;;;;;38.48;20.52;94103.84;5012134;28;20057;-45
2021/09/20 09:10:31;;;;;;;15.27;10.75;;;;;;;38.23;20.39;94120.81;5014704;28;20053;-46
2021/09/20 09:13:00;;;;;;;10.88;9.18;;;;;;;38.36;19.91;94113.09;5014178;28;20046;-47
2021/09/20 09:15:27;;;;;;;13.13;9.75;;;;;;;38.13;20.35;94127.56;5014080;28;20046;-48
2021/09/20 09:17:56;;;;;;;15.55;10.07;;;;;;;38.34;20.45;94114.81;5020650;28;20060;-46
2021/09/20 09:20:25;;;;;;;13.30;9.30;;;;;;;38.40;20.59;94119.13;5033612;28;20045;-49
2021/09/20 09:22:56;;;;;;;12.00;9.43;;;;;;;38.56;20.50;94110.44;5034361;28;20056;-56
2021/09/20 09:25:41;;;;;;;15.27;10.23;;;;;;;38.88;20.15;94113.41;5020367;28;20054;-47
2021/09/20 09:28:29;;;;;;;14.02;11.13;;;;;;;38.29;20.22;94113.50;5022076;28;20411;-49
2021/09/20 09:31:01;;;;;;;13.82;10.75;;;;;;;38.67;20.24;94100.94;5034222;28;20732;-46
2021/09/20 09:33:44;;;;;;;16.30;12.15;;;;;;;38.47;20.45;94107.81;5033460;28;20049;-48
2021/09/20 09:36:14;;;;;;;15.70;11.68;;;;;;;38.60;20.09;94120.41;5027831;28;20042;-53
2021/09/20 09:38:58;;;;;;;15.15;11.68;;;;;;;38.47;20.21;94118.72;5025855;28;20100;-46
2021/09/20 09:41:36;;;;;;;14.07;11.30;;;;;;;38.19;20.36;94122.97;5034120;28;20049;-45
2021/09/20 09:44:05;;;;;;;17.25;11.98;;;;;;;38.54;20.46;94123.81;5035711;28;20049;-44
2021/09/20 09:46:38;;;;;;;16.67;12.38;;;;;;;38.80;19.88;94128.72;5037739;28;20045;-46
2021/09/20 09:49:17;;;;;;;13.48;10.43;;;;;;;38.99;20.00;94127.22;5021983;28;20050;-47
2021/09/20 09:52:03;;;;;;;13.48;9.85;;;;;;;39.37;19.68;94120.06;5017958;28;20050;-52
2021/09/20 09:54:34;;;;;;;10.13;9.05;;;;;;;39.33;19.76;94131.19;5017788;28;20049;-44
2021/09/20 09:57:22;;;;;;;14.73;9.48;;;;;;;39.71;19.31;94124.69;4999332;28;20058;-52
2021/09/20 10:00:06;;;;;;;15.82;9.63;;;;;;;39.49;20.03;94121.69;5013601;28;20048;-56
2021/09/20 10:02:42;;;;;;;11.40;8.63;;;;;;;39.74;19.48;94120.25;5017748;28;20061;-46
2021/09/20 10:05:17;;;;;;;15.73;9.95;;;;;;;39.37;19.99;94114.59;5012249;28;20047;-47
2021/09/20 10:07:46;;;;;;;14.77;9.10;;;;;;;39.15;20.03;94112.31;5018916;28;20044;-46
2021/09/20 10:10:15;;;;;;;14.50;9.13;;;;;;;39.37;20.16;94109.88;5036819;28;20053;-46
2021/09/20 10:12:43;;;;;;;12.60;8.55;;;;;;;39.38;19.70;94100.44;5036854;28;20053;-49
2021/09/20 10:15:15;;;;;;;13.57;9.10;;;;;;;39.43;19.72;94104.47;5036532;28;20045;-47
2021/09/20 10:17:43;;;;;;;14.88;8.85;;;;;;;39.41;19.51;94098.72;5036923;28;20049;-59
2021/09/20 10:20:22;;;;;;;13.20;7.80;;;;;;;39.59;19.57;94103.94;5036909;28;20052;-46
2021/09/20 10:22:49;;;;;;;10.07;7.97;;;;;;;39.16;19.50;94106.38;5037033;28;20359;-45
2021/09/20 10:25:19;;;;;;;12.27;8.23;;;;;;;38.83;20.22;94097.72;5036277;28;20444;-45
2021/09/20 10:27:47;;;;;;;9.57;7.57;;;;;;;39.08;19.99;94094.34;5033648;28;20057;-48
2021/09/20 10:30:18;;;;;;;11.43;7.60;;;;;;;38.68;20.35;94081.34;5008554;28;20528;-47
2021/09/20 10:32:53;;;;;;;18.55;8.27;;;;;;;38.58;20.34;94069.03;4997105;28;20065;-46
2021/09/20 10:35:28;;;;;;;13.30;7.78;;;;;;;38.90;20.08;94067.25;4997233;28;20058;-45
2021/09/20 10:38:02;;;;;;;10.75;7.53;;;;;;;39.00;19.95;94068.63;5004296;28;20049;-45
2021/09/20 10:40:30;;;;;;;12.38;7.57;;;;;;;39.43;19.22;94068.91;5036600;28;20045;-46
2021/09/20 10:43:07;;;;;;;12.80;7.97;;;;;;;39.12;19.82;94056.63;5029459;28;20050;-45
2021/09/20 10:45:49;;;;;;;9.45;7.88;;;;;;;39.89;19.59;94068.19;5021319;28;20052;-46
2021/09/20 10:48:17;;;;;;;16.77;9.18;;;;;;;40.05;19.12;94067.59;5016671;28;20118;-56
2021/09/20 10:50:55;;;;;;;17.83;13.23;;;;;;;39.75;19.61;94065.06;5023616;28;20054;-46
2021/09/20 10:53:33;;;;;;;16.10;7.75;;;;;;;39.00;19.59;94054.94;5016584;28;20073;-45
2021/09/20 10:56:03;;;;;;;12.75;5.28;;;;;;;39.52;18.89;94060.59;5015587;28;20056;-45
2021/09/20 10:58:39;;;;;;;10.47;8.10;;;;;;;39.54;19.52;94069.06;5016353;28;20034;-44
2021/09/20 11:01:12;;;;;;;11.23;5.93;;;;;;;39.19;19.38;94055.47;5016043;28;20277;-47
2021/09/20 11:03:42;;;;;;;11.50;4.80;;;;;;;38.98;19.29;94045.72;5016363;28;20107;-46
2021/09/20 11:06:20;;;;;;;14.00;4.57;;;;;;;39.78;18.50;94034.00;5010426;28;20050;-47
2021/09/20 11:09:10;;;;;;;11.52;4.95;;;;;;;39.73;18.40;94042.91;5001183;28;20053;-44
2021/09/20 11:11:44;;;;;;;9.45;4.15;;;;;;;40.06;18.39;94017.09;5034508;28;20052;-46
2021/09/20 11:14:17;;;;;;;10.43;4.60;;;;;;;40.34;18.17;94018.06;5035069;28;20045;-45
2021/09/20 11:16:56;;;;;;;9.88;4.15;;;;;;;39.91;18.40;94013.72;4996906;28;20449;-52
2021/09/20 11:22:11;;;;;;;15.48;4.45;;;;;;;39.74;18.34;94000.63;5035747;28;20049;-45
2021/09/20 11:25:03;;;;;;;13.60;4.50;;;;;;;40.23;17.95;93998.81;5034948;28;20049;-45
2021/09/20 11:27:36;;;;;;;10.57;4.05;;;;;;;40.34;17.97;93996.16;5017128;28;20041;-44
2021/09/20 11:30:06;;;;;;;12.48;4.32;;;;;;;40.21;17.79;93995.81;5029033;28;20045;-46
2021/09/20 11:32:37;;;;;;;9.48;3.95;;;;;;;40.47;17.84;93992.28;5016008;28;20388;-45
2021/09/20 11:35:04;;;;;;;12.40;4.10;;;;;;;40.56;17.49;93990.09;5014771;28;20056;-51